Time;durP1;ratioP1;P1;durP2;ratioP2;P2;SDS_P1;SDS_P2;PMS_P1;PMS_P2;Temp;Humidity;BMP_temperature;BMP_pressure;BME280_temperature;BME280_humidity;BME280_pressure;Samples;Min_cycle;Max_cycle;Signal;HPM_P1;HPM_P2
2022/10/16 00:01:29;;;;;;;5.45;1.55;;;13.20;77.80;;;;;;5130335;27;20066;-71
2022/10/16 00:03:56;;;;;;;4.88;1.55;;;13.30;77.80;;;;;;5130131;27;20039;-71
2022/10/16 00:06:23;;;;;;;4.97;1.60;;;13.20;77.70;;;;;;5129838;27;20367;-70
2022/10/16 00:08:49;;;;;;;4.75;1.58;;;13.30;77.80;;;;;;5130411;28;20067;-71
2022/10/16 00:11:18;;;;;;;7.80;1.98;;;13.20;77.70;;;;;;5130207;27;20039;-70
2022/10/16 00:13:46;;;;;;;7.13;1.90;;;13.30;77.70;;;;;;5113379;28;20040;-70
2022/10/16 00:16:12;;;;;;;5.10;1.48;;;13.30;77.70;;;;;;5130394;27;20043;-70
2022/10/16 00:18:38;;;;;;;6.13;1.58;;;13.30;77.60;;;;;;5130429;27;20040;-71
2022/10/16 00:21:09;;;;;;;5.18;1.73;;;13.30;77.60;;;;;;5130249;27;20501;-71
2022/10/16 00:23:36;;;;;;;4.90;1.80;;;13.30;77.50;;;;;;5130463;27;20035;-71
2022/10/16 00:26:05;;;;;;;4.50;1.98;;;13.30;77.50;;;;;;5113095;27;20046;-71
2022/10/16 00:28:31;;;;;;;6.80;1.77;;;13.30;77.40;;;;;;5130424;28;20530;-71
2022/10/16 00:30:57;;;;;;;7.88;1.70;;;13.30;77.30;;;;;;5130009;27;20082;-71
2022/10/16 00:33:23;;;;;;;7.30;1.77;;;13.30;77.30;;;;;;5130855;27;20110;-71
2022/10/16 00:35:50;;;;;;;7.47;1.77;;;13.30;77.20;;;;;;5134125;27;20118;-71
2022/10/16 00:38:16;;;;;;;3.42;1.67;;;13.20;77.10;;;;;;5116744;27;20043;-71
2022/10/16 00:40:42;;;;;;;4.30;1.77;;;13.30;77.20;;;;;;5134368;27;20382;-71
2022/10/16 00:43:34;;;;;;;5.43;1.90;;;13.30;77.10;;;;;;5133196;27;20039;-71
2022/10/16 00:46:01;;;;;;;5.88;2.25;;;13.30;77.00;;;;;;5132603;27;20187;-71
2022/10/16 00:48:27;;;;;;;6.32;1.60;;;13.30;77.00;;;;;;5133800;27;20509;-71
2022/10/16 00:50:53;;;;;;;4.40;1.67;;;13.30;77.00;;;;;;5134020;27;20039;-71
2022/10/16 00:53:19;;;;;;;7.78;2.63;;;13.30;77.00;;;;;;5133520;27;20516;-71
2022/10/16 00:55:46;;;;;;;6.43;1.73;;;13.30;77.00;;;;;;5133716;27;20510;-71
2022/10/16 00:58:12;;;;;;;6.15;1.95;;;13.30;77.00;;;;;;5116563;27;20039;-71
2022/10/16 01:00:38;;;;;;;6.50;1.48;;;13.30;76.90;;;;;;5133526;27;20043;-71
2022/10/16 01:03:33;;;;;;;4.70;1.40;;;13.30;76.90;;;;;;5134534;27;20110;-71
2022/10/16 01:06:03;;;;;;;;;;;13.30;76.80;;;;;;5133497;27;20049;-71
2022/10/16 01:08:38;;;;;;;4.85;1.90;;;13.30;76.80;;;;;;5133492;27;19927;-71
2022/10/16 01:11:17;;;;;;;4.35;1.20;;;13.30;76.90;;;;;;5133877;27;20049;-71
2022/10/16 01:13:48;;;;;;;4.65;1.85;;;13.30;76.70;;;;;;5131816;27;20043;-71
2022/10/16 01:16:40;;;;;;;2.55;1.70;;;13.40;76.70;;;;;;5133636;27;20413;-70
2022/10/16 01:19:31;;;;;;;5.93;1.60;;;13.30;76.30;;;;;;5115784;27;20046;-71
2022/10/16 01:21:59;;;;;;;6.20;1.80;;;13.40;76.20;;;;;;5109535;27;20054;-70
2022/10/16 01:24:38;;;;;;;5.43;1.83;;;13.40;76.20;;;;;;5133373;27;20043;-70
2022/10/16 01:27:25;;;;;;;2.20;1.42;;;13.40;76.10;;;;;;5130841;27;20463;-70
2022/10/16 01:30:09;;;;;;;3.65;1.33;;;13.40;75.80;;;;;;5132916;27;20035;-70
2022/10/16 01:32:40;;;;;;;3.90;1.38;;;13.40;75.80;;;;;;5133006;27;20045;-70
2022/10/16 01:35:25;;;;;;;5.10;1.45;;;13.40;75.80;;;;;;5133136;27;20065;-70
2022/10/16 01:38:11;;;;;;;5.90;1.63;;;13.40;75.60;;;;;;5139401;27;20043;-70
2022/10/16 01:40:41;;;;;;;5.38;1.40;;;13.50;75.70;;;;;;5133566;27;20035;-70
2022/10/16 01:43:15;;;;;;;4.03;1.33;;;13.50;75.60;;;;;;5132536;27;20039;-70
2022/10/16 01:45:42;;;;;;;5.85;1.45;;;13.50;75.50;;;;;;5115426;27;20047;-71
2022/10/16 01:48:11;;;;;;;5.38;1.48;;;13.50;75.50;;;;;;5132993;27;20088;-70
2022/10/16 01:50:40;;;;;;;4.57;1.40;;;13.50;75.30;;;;;;5132783;27;20038;-70
2022/10/16 01:53:10;;;;;;;3.22;1.35;;;13.50;75.20;;;;;;5132249;27;20068;-70
2022/10/16 01:55:41;;;;;;;5.78;1.50;;;13.50;75.20;;;;;;5132118;27;20099;-70
2022/10/16 01:58:10;;;;;;;4.45;1.50;;;13.50;75.20;;;;;;5131760;27;20494;-71
2022/10/16 02:00:39;;;;;;;3.22;1.20;;;13.50;75.10;;;;;;5133102;27;20039;-71
2022/10/16 02:03:06;;;;;;;5.97;1.52;;;13.50;75.10;;;;;;5131651;27;20050;-71
2022/10/16 02:05:45;;;;;;;4.85;1.35;;;13.50;75.10;;;;;;5132758;27;20079;-71
2022/10/16 02:08:11;;;;;;;4.70;1.73;;;13.50;75.00;;;;;;5134038;27;20176;-71
2022/10/16 02:10:38;;;;;;;4.53;1.23;;;13.50;75.10;;;;;;5134174;27;20036;-71
2022/10/16 02:13:09;;;;;;;4.57;1.58;;;13.50;75.20;;;;;;5114728;27;20127;-71
2022/10/16 02:15:35;;;;;;;3.25;1.35;;;13.50;75.10;;;;;;5131962;27;20035;-71
2022/10/16 02:18:03;;;;;;;2.17;1.23;;;13.50;75.20;;;;;;5131945;27;20061;-71
2022/10/16 02:20:36;;;;;;;4.28;1.17;;;13.50;75.20;;;;;;5131831;27;20050;-71
2022/10/16 02:23:03;;;;;;;2.63;1.53;;;13.50;75.20;;;;;;5139304;27;20101;-71
2022/10/16 02:25:37;;;;;;;7.35;1.65;;;13.50;75.60;;;;;;5131922;27;20497;-71
2022/10/16 02:28:22;;;;;;;5.20;1.65;;;13.50;75.10;;;;;;5114422;27;20046;-71
2022/10/16 02:30:57;;;;;;;4.00;1.85;;;13.50;75.20;;;;;;5129555;27;20038;-71
2022/10/16 02:33:25;;;;;;;8.73;2.17;;;13.50;75.20;;;;;;5141147;27;20127;-71
2022/10/16 02:35:52;;;;;;;6.32;2.22;;;13.50;75.20;;;;;;5132016;27;20043;-71
2022/10/16 02:38:20;;;;;;;3.53;1.40;;;13.50;75.20;;;;;;5114781;27;20486;-71
2022/10/16 02:40:46;;;;;;;3.58;1.88;;;13.60;75.30;;;;;;5131867;27;20031;-71
2022/10/16 02:43:12;;;;;;;4.03;1.65;;;13.50;75.30;;;;;;5131763;27;21733;-71
2022/10/16 02:45:37;;;;;;;1.70;1.20;;;13.50;75.40;;;;;;5131543;27;20035;-71
2022/10/16 02:48:03;;;;;;;5.05;1.60;;;13.50;75.30;;;;;;5131234;27;20505;-71
2022/10/16 02:50:29;;;;;;;4.10;1.42;;;13.50;75.30;;;;;;5131912;27;20044;-71
2022/10/16 02:52:54;;;;;;;3.63;1.80;;;13.50;75.30;;;;;;5114519;27;20058;-71
2022/10/16 02:55:20;;;;;;;2.65;1.63;;;13.50;75.30;;;;;;5131368;27;20055;-71
2022/10/16 02:57:46;;;;;;;6.20;1.70;;;13.50;75.30;;;;;;5113998;27;20042;-71
2022/10/16 03:00:15;;;;;;;2.55;1.40;;;13.50;75.30;;;;;;5114093;27;20055;-71
2022/10/16 03:02:41;;;;;;;3.63;1.23;;;13.60;75.40;;;;;;5130202;27;20482;-71
2022/10/16 03:05:07;;;;;;;4.82;1.40;;;13.50;75.40;;;;;;5131714;27;20050;-71
2022/10/16 03:07:33;;;;;;;3.40;1.48;;;13.50;75.40;;;;;;5130648;27;20090;-71
2022/10/16 03:10:02;;;;;;;6.15;1.80;;;13.50;75.50;;;;;;5131369;27;20112;-71
2022/10/16 03:12:28;;;;;;;4.78;2.08;;;13.60;75.60;;;;;;5130725;27;20045;-71
2022/10/16 03:14:56;;;;;;;2.90;1.40;;;13.60;75.60;;;;;;5130513;27;20059;-72
2022/10/16 03:17:23;;;;;;;4.68;1.58;;;13.50;75.50;;;;;;5128735;27;20035;-71
2022/10/16 03:19:48;;;;;;;3.83;1.35;;;13.50;75.60;;;;;;5131123;27;20084;-71
2022/10/16 03:22:14;;;;;;;3.72;1.35;;;13.50;75.60;;;;;;5113644;27;20431;-71
2022/10/16 03:24:39;;;;;;;5.75;1.38;;;13.60;75.70;;;;;;5137418;27;20035;-71
2022/10/16 03:27:05;;;;;;;4.40;1.55;;;13.60;75.80;;;;;;5130386;27;20039;-72
2022/10/16 03:29:32;;;;;;;4.45;1.40;;;13.60;75.80;;;;;;5131032;27;20067;-72
2022/10/16 03:31:58;;;;;;;4.55;1.70;;;13.60;75.90;;;;;;5113597;27;20220;-71
2022/10/16 03:34:25;;;;;;;4.38;1.50;;;13.50;75.80;;;;;;5130963;27;20185;-72
2022/10/16 03:36:51;;;;;;;4.97;1.70;;;13.60;76.00;;;;;;5130294;27;20039;-71
2022/10/16 03:39:17;;;;;;;3.25;1.63;;;13.60;76.00;;;;;;5114325;28;20031;-71
2022/10/16 03:41:42;;;;;;;4.78;1.80;;;13.50;75.90;;;;;;5130299;27;20030;-71
2022/10/16 03:44:08;;;;;;;3.10;1.60;;;13.60;76.00;;;;;;5113756;27;20047;-71
2022/10/16 03:46:34;;;;;;;4.53;1.60;;;13.60;76.00;;;;;;5113232;28;20035;-71
2022/10/16 03:48:59;;;;;;;5.07;1.70;;;13.50;76.00;;;;;;5130703;27;20035;-71
2022/10/16 03:51:25;;;;;;;4.50;1.60;;;13.60;76.10;;;;;;5128546;27;20035;-72
2022/10/16 03:53:51;;;;;;;4.47;1.80;;;13.60;76.20;;;;;;5130306;28;20555;-71
2022/10/16 03:56:16;;;;;;;4.05;2.45;;;13.50;76.20;;;;;;5113342;28;20446;-71
2022/10/16 03:58:42;;;;;;;3.38;1.60;;;13.50;76.20;;;;;;5095866;28;20043;-71
2022/10/16 04:01:08;;;;;;;4.75;1.73;;;13.50;76.20;;;;;;5130911;27;20530;-72
2022/10/16 04:03:33;;;;;;;4.18;1.70;;;13.50;76.30;;;;;;5113253;27;20050;-71
2022/10/16 04:05:59;;;;;;;6.47;1.52;;;13.50;76.30;;;;;;5131048;28;20047;-71
2022/10/16 04:08:25;;;;;;;3.67;1.70;;;13.50;76.30;;;;;;5131066;27;20514;-72
2022/10/16 04:10:50;;;;;;;3.40;1.92;;;13.50;76.30;;;;;;5134967;27;20035;-71
2022/10/16 04:13:16;;;;;;;4.40;1.98;;;13.50;76.30;;;;;;5134709;27;20055;-72
2022/10/16 04:15:42;;;;;;;4.80;1.70;;;13.50;76.30;;;;;;5134685;27;20027;-71
2022/10/16 04:18:08;;;;;;;3.38;1.70;;;13.50;76.30;;;;;;5134106;27;20492;-71
2022/10/16 04:20:34;;;;;;;2.92;1.80;;;13.50;76.30;;;;;;5134509;27;20040;-71
2022/10/16 04:23:00;;;;;;;3.08;1.73;;;13.40;76.30;;;;;;5117596;27;20039;-71
2022/10/16 04:25:25;;;;;;;5.47;2.15;;;13.40;76.40;;;;;;5117169;27;20050;-71
2022/10/16 04:27:53;;;;;;;4.45;1.90;;;13.40;76.50;;;;;;5133709;27;20401;-71
2022/10/16 04:30:19;;;;;;;4.63;2.33;;;13.40;76.50;;;;;;5117033;27;20126;-70
2022/10/16 04:32:49;;;;;;;5.20;2.30;;;13.40;76.70;;;;;;5134773;27;20078;-70
2022/10/16 04:35:15;;;;;;;4.32;2.13;;;13.40;76.80;;;;;;5133893;27;20028;-70
2022/10/16 04:37:41;;;;;;;3.38;2.10;;;13.40;76.90;;;;;;5133770;27;20046;-71
2022/10/16 04:40:07;;;;;;;3.42;1.90;;;13.40;77.00;;;;;;5134433;27;20114;-72
2022/10/16 04:42:33;;;;;;;6.57;2.70;;;13.40;77.10;;;;;;5134113;27;20047;-71
2022/10/16 04:44:58;;;;;;;3.38;2.25;;;13.30;77.10;;;;;;5134156;27;20415;-71
2022/10/16 04:47:24;;;;;;;3.92;2.40;;;13.40;77.70;;;;;;5116758;27;20035;-71
2022/10/16 04:49:50;;;;;;;4.28;2.58;;;13.40;77.40;;;;;;5133845;27;20042;-71
2022/10/16 04:52:16;;;;;;;3.45;2.03;;;13.40;77.40;;;;;;5134727;27;20043;-71
2022/10/16 04:54:41;;;;;;;4.32;2.60;;;13.40;77.50;;;;;;5133485;27;20035;-70
2022/10/16 04:57:07;;;;;;;6.78;2.90;;;13.40;77.60;;;;;;5104830;27;20489;-71
2022/10/16 04:59:33;;;;;;;6.32;2.85;;;13.30;77.60;;;;;;5133474;27;20035;-71
2022/10/16 05:01:58;;;;;;;3.20;2.03;;;13.40;77.70;;;;;;5134168;27;20035;-71
2022/10/16 05:04:24;;;;;;;3.22;2.30;;;13.40;77.70;;;;;;5132494;27;20039;-71
2022/10/16 05:06:49;;;;;;;4.38;2.65;;;13.30;77.70;;;;;;5133760;27;20049;-71
2022/10/16 05:09:15;;;;;;;5.30;2.22;;;13.40;77.80;;;;;;5133262;27;20091;-71
2022/10/16 05:11:41;;;;;;;4.80;2.20;;;13.40;77.90;;;;;;5134089;27;20043;-71
2022/10/16 05:14:06;;;;;;;6.72;3.35;;;13.40;77.90;;;;;;5133672;27;20493;-71
2022/10/16 05:16:32;;;;;;;3.53;2.67;;;13.40;77.90;;;;;;5116593;27;20399;-71
2022/10/16 05:18:58;;;;;;;5.95;2.80;;;13.40;77.90;;;;;;5132682;27;20031;-71
2022/10/16 05:21:23;;;;;;;6.03;2.45;;;13.40;78.00;;;;;;5132829;27;20035;-71
2022/10/16 05:23:49;;;;;;;6.28;2.72;;;13.40;78.00;;;;;;5116435;27;20042;-71
2022/10/16 05:26:15;;;;;;;5.30;2.38;;;13.40;78.10;;;;;;5133274;27;20402;-71
2022/10/16 05:28:40;;;;;;;5.22;2.97;;;13.40;78.10;;;;;;5133117;27;20039;-71
2022/10/16 05:31:07;;;;;;;8.30;2.90;;;13.40;78.10;;;;;;5133375;27;20042;-71
2022/10/16 05:33:33;;;;;;;5.07;2.30;;;13.30;78.10;;;;;;5132556;27;20120;-71
2022/10/16 05:36:03;;;;;;;3.67;2.28;;;13.40;78.20;;;;;;5115752;27;20051;-71
2022/10/16 05:38:29;;;;;;;3.95;2.53;;;13.40;78.20;;;;;;5130933;27;20114;-71
2022/10/16 05:40:54;;;;;;;5.80;2.20;;;13.40;78.20;;;;;;5133751;27;20237;-71
2022/10/16 05:43:20;;;;;;;6.25;2.67;;;13.40;78.20;;;;;;5133487;27;20035;-71
2022/10/16 05:45:57;;;;;;;6.18;2.83;;;13.40;78.20;;;;;;5133416;27;20041;-71
2022/10/16 05:48:23;;;;;;;5.60;2.25;;;13.40;78.20;;;;;;5116387;27;20046;-70
2022/10/16 05:50:56;;;;;;;7.85;2.70;;;13.40;78.20;;;;;;5133235;27;20120;-70
2022/10/16 05:53:25;;;;;;;3.85;2.55;;;13.40;78.20;;;;;;5133474;27;20053;-70
2022/10/16 05:55:58;;;;;;;4.30;2.35;;;13.40;78.30;;;;;;5137871;27;20047;-71
2022/10/16 05:58:25;;;;;;;5.57;2.85;;;13.40;78.30;;;;;;5133412;27;20034;-71
2022/10/16 06:00:58;;;;;;;5.78;2.60;;;13.30;78.20;;;;;;5133359;27;20104;-70
2022/10/16 06:03:24;;;;;;;4.70;2.20;;;13.40;78.30;;;;;;5115820;27;20444;-71
2022/10/16 06:05:50;;;;;;;5.80;2.42;;;13.40;78.20;;;;;;5133346;27;20039;-71
2022/10/16 06:08:17;;;;;;;5.55;2.40;;;13.40;78.30;;;;;;5133117;27;20403;-70
2022/10/16 06:10:43;;;;;;;4.35;2.00;;;13.40;78.20;;;;;;5115979;27;20074;-71
2022/10/16 06:13:09;;;;;;;4.88;2.45;;;13.40;78.30;;;;;;5134401;27;20035;-70
2022/10/16 06:15:35;;;;;;;4.25;2.50;;;13.40;78.30;;;;;;5115114;27;20406;-70
2022/10/16 06:18:01;;;;;;;4.63;2.17;;;13.40;78.30;;;;;;5131951;27;20035;-71
2022/10/16 06:20:26;;;;;;;6.47;2.78;;;13.40;78.30;;;;;;5131399;27;20042;-80
2022/10/16 06:22:52;;;;;;;3.75;2.22;;;13.40;78.30;;;;;;5100547;27;20592;-77
2022/10/16 06:25:18;;;;;;;5.70;2.90;;;13.40;78.30;;;;;;5100253;27;20084;-78
2022/10/16 06:27:43;;;;;;;3.22;1.73;;;13.40;78.30;;;;;;5117332;27;20039;-79
2022/10/16 06:30:09;;;;;;;3.67;2.10;;;13.40;78.30;;;;;;5134240;27;20039;-79
2022/10/16 06:32:35;;;;;;;5.15;2.17;;;13.40;78.30;;;;;;5113223;27;20142;-80
2022/10/16 06:35:01;;;;;;;5.60;2.40;;;13.40;78.40;;;;;;5133473;27;20511;-76
2022/10/16 06:37:27;;;;;;;5.22;2.47;;;13.40;78.40;;;;;;5100240;27;20115;-77
2022/10/16 06:39:52;;;;;;;3.80;2.60;;;13.40;78.50;;;;;;5116960;27;20118;-77
2022/10/16 06:42:18;;;;;;;6.18;2.33;;;13.40;78.50;;;;;;5116846;27;20168;-77
2022/10/16 06:44:44;;;;;;;4.13;2.20;;;13.40;78.50;;;;;;5113383;28;20043;-77
2022/10/16 06:47:10;;;;;;;4.53;2.35;;;13.40;78.60;;;;;;5123995;27;20037;-77
2022/10/16 06:49:36;;;;;;;4.80;2.10;;;13.40;78.60;;;;;;5113704;28;20077;-77
2022/10/16 06:52:02;;;;;;;5.65;2.60;;;13.50;78.70;;;;;;5133657;27;20096;-77
2022/10/16 06:54:28;;;;;;;4.97;2.30;;;13.40;78.70;;;;;;5115925;27;20086;-78
2022/10/16 06:56:54;;;;;;;5.63;2.20;;;13.50;78.80;;;;;;5133561;27;20490;-77
2022/10/16 06:59:21;;;;;;;6.05;2.58;;;13.50;78.80;;;;;;5116506;27;20049;-78
2022/10/16 07:01:46;;;;;;;5.97;2.35;;;13.50;78.80;;;;;;5116519;27;20035;-78
2022/10/16 07:04:12;;;;;;;4.28;2.30;;;13.50;78.80;;;;;;5116687;27;20033;-77
2022/10/16 07:06:38;;;;;;;7.20;2.20;;;13.60;78.90;;;;;;5133735;27;20502;-77
2022/10/16 07:09:07;;;;;;;5.00;2.08;;;13.60;78.90;;;;;;5133320;27;20031;-77
2022/10/16 07:11:33;;;;;;;4.35;2.08;;;13.60;78.90;;;;;;5116156;27;20043;-76
2022/10/16 07:13:59;;;;;;;4.57;2.10;;;13.60;78.90;;;;;;5116361;27;20039;-77
2022/10/16 07:16:28;;;;;;;4.20;1.92;;;13.60;78.90;;;;;;5116107;27;20402;-77
2022/10/16 07:18:58;;;;;;;4.00;1.95;;;13.60;78.90;;;;;;5115919;27;20059;-77
2022/10/16 07:21:25;;;;;;;3.60;1.90;;;13.60;78.90;;;;;;5116297;27;20035;-77
2022/10/16 07:23:52;;;;;;;4.63;2.22;;;13.60;78.90;;;;;;5135283;27;20039;-77
2022/10/16 07:26:18;;;;;;;4.20;1.77;;;13.60;78.90;;;;;;5135069;27;20039;-77
2022/10/16 07:28:44;;;;;;;2.97;1.67;;;13.70;78.90;;;;;;5100984;27;20038;-76
2022/10/16 07:31:13;;;;;;;4.43;1.55;;;13.70;78.80;;;;;;5117507;27;20070;-76
2022/10/16 07:33:41;;;;;;;6.00;1.58;;;13.70;78.80;;;;;;5117568;27;20031;-76
2022/10/16 07:36:07;;;;;;;3.30;1.83;;;13.70;78.70;;;;;;5135916;27;20053;-76
2022/10/16 07:38:34;;;;;;;4.40;1.65;;;13.70;79.10;;;;;;5132798;27;20111;-76
2022/10/16 07:41:05;;;;;;;4.85;1.77;;;13.70;78.60;;;;;;5115931;27;20031;-77
2022/10/16 07:43:32;;;;;;;3.00;1.42;;;13.80;78.70;;;;;;5136166;27;20031;-76
2022/10/16 07:45:58;;;;;;;2.60;1.10;;;13.80;78.60;;;;;;5116200;27;20793;-76
2022/10/16 07:48:26;;;;;;;4.75;1.67;;;13.80;78.90;;;;;;5116274;27;20035;-76
2022/10/16 07:50:52;;;;;;;5.03;1.13;;;13.80;78.40;;;;;;5116760;28;20050;-76
2022/10/16 07:53:18;;;;;;;4.07;1.60;;;13.80;78.40;;;;;;5131704;27;20150;-77
2022/10/16 07:55:44;;;;;;;2.42;1.13;;;13.90;78.40;;;;;;5114617;27;20074;-77
2022/10/16 07:58:09;;;;;;;3.13;1.20;;;13.90;78.40;;;;;;5115922;27;20034;-77
2022/10/16 08:00:37;;;;;;;4.13;1.27;;;13.90;78.40;;;;;;5099140;27;20087;-77
2022/10/16 08:03:03;;;;;;;3.70;1.23;;;13.90;78.40;;;;;;5136402;27;20042;-76
2022/10/16 08:05:30;;;;;;;3.28;1.80;;;14.00;78.40;;;;;;5135995;27;20046;-77
2022/10/16 08:07:56;;;;;;;4.55;1.10;;;14.00;78.30;;;;;;5131540;27;20490;-78
2022/10/16 08:10:24;;;;;;;3.65;1.40;;;14.10;78.30;;;;;;5116395;27;20050;-77
2022/10/16 08:12:50;;;;;;;3.75;1.20;;;14.10;78.30;;;;;;5132102;27;20051;-77
2022/10/16 08:15:17;;;;;;;3.17;0.93;;;14.10;78.40;;;;;;5102130;27;20482;-77
2022/10/16 08:17:43;;;;;;;4.75;1.20;;;14.20;78.30;;;;;;5119015;27;20027;-77
2022/10/16 08:20:09;;;;;;;3.35;1.00;;;14.20;78.20;;;;;;5139872;27;20071;-77
2022/10/16 08:22:35;;;;;;;3.28;1.20;;;14.30;78.20;;;;;;5133723;27;20039;-77
2022/10/16 08:25:01;;;;;;;4.80;1.50;;;14.30;78.10;;;;;;5117870;27;20058;-77
2022/10/16 08:27:31;;;;;;;4.38;1.30;;;14.30;78.00;;;;;;5117009;27;20089;-77
2022/10/16 08:29:57;;;;;;;3.55;1.35;;;14.30;77.90;;;;;;5118176;27;20355;-78
2022/10/16 08:32:23;;;;;;;4.97;1.67;;;14.40;77.80;;;;;;5136272;27;20048;-76
2022/10/16 08:34:49;;;;;;;3.67;1.13;;;14.40;77.70;;;;;;5126551;27;20129;-76
2022/10/16 08:37:14;;;;;;;4.35;1.52;;;14.50;78.00;;;;;;5145300;27;20039;-77
2022/10/16 08:39:40;;;;;;;8.30;2.03;;;14.60;78.20;;;;;;5142777;27;20034;-77
2022/10/16 08:42:41;;;;;;;4.47;1.30;;;14.70;78.20;;;;;;5127809;27;20041;-77
2022/10/16 08:45:19;;;;;;;4.63;1.48;;;14.90;77.80;;;;;;5128357;27;20058;-76
2022/10/16 08:48:08;;;;;;;3.55;1.63;;;15.10;77.90;;;;;;5143814;27;20046;-77
2022/10/16 08:50:38;;;;;;;3.78;1.10;;;15.30;77.20;;;;;;5127984;27;20425;-77
2022/10/16 08:53:05;;;;;;;4.10;1.33;;;15.50;76.50;;;;;;5144007;27;20039;-77
2022/10/16 08:55:50;;;;;;;4.38;1.95;;;15.60;75.60;;;;;;5144373;27;20051;-76
2022/10/16 08:58:21;;;;;;;4.13;1.30;;;15.80;74.80;;;;;;5148630;27;20549;-77
2022/10/16 09:00:54;;;;;;;6.32;2.05;;;16.00;74.20;;;;;;5149195;27;20039;-76
2022/10/16 09:04:03;;;;;;;8.60;1.67;;;16.20;73.60;;;;;;5128530;27;20042;-77
2022/10/16 09:06:54;;;;;;;4.18;1.30;;;16.40;73.20;;;;;;5144319;27;20046;-77
2022/10/16 09:09:38;;;;;;;2.88;1.33;;;16.60;72.80;;;;;;5131355;27;20393;-76
2022/10/16 09:12:28;;;;;;;4.32;1.25;;;16.70;72.80;;;;;;5146021;27;20034;-77
2022/10/16 09:15:08;;;;;;;5.88;2.10;;;16.90;71.70;;;;;;5146471;27;20041;-76
2022/10/16 09:17:44;;;;;;;8.18;1.85;;;17.10;70.90;;;;;;5146646;27;20046;-76
2022/10/16 09:20:17;;;;;;;5.10;1.27;;;17.20;70.60;;;;;;5147733;27;20042;-76
2022/10/16 09:22:43;;;;;;;4.80;1.40;;;17.30;69.70;;;;;;5128017;27;20058;-76
2022/10/16 09:25:20;;;;;;;5.72;1.55;;;17.40;69.10;;;;;;5127708;27;20076;-76
2022/10/16 09:27:48;;;;;;;5.43;1.33;;;17.50;68.10;;;;;;5129572;27;20057;-75
2022/10/16 09:30:17;;;;;;;5.25;1.35;;;17.60;67.80;;;;;;5132814;27;20550;-76
2022/10/16 09:32:45;;;;;;;5.97;1.60;;;17.70;67.50;;;;;;5132274;27;20467;-76
2022/10/16 09:35:20;;;;;;;7.35;1.48;;;17.70;67.50;;;;;;5143618;27;20127;-76
2022/10/16 09:37:50;;;;;;;6.68;1.50;;;17.80;66.90;;;;;;5146158;27;20088;-76
2022/10/16 09:40:37;;;;;;;5.32;1.27;;;17.80;66.80;;;;;;5146611;27;20043;-76
2022/10/16 09:43:15;;;;;;;6.22;1.55;;;17.90;66.70;;;;;;5147350;27;20053;-76
2022/10/16 09:45:41;;;;;;;6.00;1.48;;;17.90;66.30;;;;;;5145919;27;20053;-76
2022/10/16 09:48:19;;;;;;;6.05;1.65;;;17.90;66.40;;;;;;5144917;27;20039;-75
2022/10/16 09:51:05;;;;;;;10.43;2.15;;;18.00;66.40;;;;;;5144023;27;20042;-76
2022/10/16 09:53:40;;;;;;;8.98;1.73;;;18.00;66.30;;;;;;5132454;27;20039;-76
2022/10/16 09:56:06;;;;;;;7.15;1.90;;;18.10;66.30;;;;;;5112589;27;20058;-76
2022/10/16 09:58:33;;;;;;;6.10;1.70;;;18.10;66.10;;;;;;5131511;27;20498;-76
2022/10/16 10:00:59;;;;;;;6.10;1.50;;;18.20;65.90;;;;;;5131641;27;20039;-76
2022/10/16 10:03:37;;;;;;;9.85;2.13;;;18.20;65.90;;;;;;5148260;27;20035;-75
2022/10/16 10:06:16;;;;;;;7.47;1.77;;;18.20;65.60;;;;;;5128331;27;20046;-76
2022/10/16 10:08:57;;;;;;;5.93;1.65;;;18.30;65.80;;;;;;5128680;27;20076;-75
2022/10/16 10:11:40;;;;;;;5.93;1.52;;;18.30;65.90;;;;;;5124931;27;20575;-75
2022/10/16 10:14:13;;;;;;;8.60;1.65;;;18.40;65.60;;;;;;5147314;27;20037;-75
2022/10/16 10:16:39;;;;;;;7.20;1.65;;;18.40;65.70;;;;;;5128830;27;20478;-75
2022/10/16 10:19:13;;;;;;;6.70;1.50;;;18.40;65.60;;;;;;5146770;27;20080;-76
2022/10/16 10:21:38;;;;;;;;;;;18.40;65.30;;;;;;5147098;27;20064;-75
2022/10/16 10:24:04;;;;;;;7.38;1.73;;;18.40;65.90;;;;;;5128948;27;20380;-75
2022/10/16 10:26:32;;;;;;;4.63;1.48;;;18.40;65.30;;;;;;5109418;27;20027;-75
2022/10/16 10:29:23;;;;;;;7.57;1.77;;;18.50;65.00;;;;;;5145702;27;20482;-76
2022/10/16 10:32:17;;;;;;;7.93;1.98;;;18.50;64.70;;;;;;5128301;27;20122;-75
2022/10/16 10:34:49;;;;;;;8.23;3.10;;;18.50;64.30;;;;;;5128247;27;20038;-76
2022/10/16 10:37:36;;;;;;;6.35;1.67;;;18.50;64.60;;;;;;5128844;27;20038;-76
2022/10/16 10:40:45;;;;;;;7.60;2.20;;;18.50;64.50;;;;;;5141909;27;20030;-77
2022/10/16 10:43:42;;;;;;;11.52;4.68;;;18.60;64.70;;;;;;5121778;27;20047;-77
2022/10/16 10:46:39;;;;;;;9.57;2.40;;;18.60;64.40;;;;;;5137926;27;20050;-77
2022/10/16 10:49:14;;;;;;;10.48;2.22;;;18.60;63.60;;;;;;5125318;27;20038;-77
2022/10/16 10:51:52;;;;;;;7.10;2.28;;;18.60;63.30;;;;;;5118071;27;20041;-77
2022/10/16 10:54:24;;;;;;;9.23;1.80;;;18.50;62.90;;;;;;5135573;27;20066;-77
2022/10/16 10:57:16;;;;;;;8.88;2.40;;;18.60;62.70;;;;;;5140915;27;20047;-77
2022/10/16 11:00:09;;;;;;;8.95;2.10;;;18.50;62.20;;;;;;5092097;27;20040;-78
2022/10/16 11:03:01;;;;;;;8.40;1.80;;;18.50;61.90;;;;;;5112297;27;20050;-78
2022/10/16 11:05:39;;;;;;;8.52;2.05;;;18.50;61.70;;;;;;5122549;27;20054;-78
2022/10/16 11:08:27;;;;;;;9.80;1.85;;;18.50;62.10;;;;;;5133345;27;20043;-78
2022/10/16 11:11:02;;;;;;;10.43;2.17;;;18.50;61.50;;;;;;5113007;28;20042;-77
2022/10/16 11:13:36;;;;;;;8.52;1.83;;;18.50;61.20;;;;;;5113348;28;20042;-77
2022/10/16 11:16:14;;;;;;;9.98;2.13;;;18.50;60.80;;;;;;5112729;28;20043;-77
2022/10/16 11:18:50;;;;;;;6.93;1.85;;;18.50;61.00;;;;;;5095492;28;20039;-77
2022/10/16 11:21:19;;;;;;;12.48;2.25;;;18.50;61.30;;;;;;5113155;28;20387;-77
2022/10/16 11:24:00;;;;;;;7.93;2.03;;;18.50;61.40;;;;;;5129927;27;20043;-77
2022/10/16 11:26:34;;;;;;;9.90;2.25;;;18.50;61.20;;;;;;5133129;27;20043;-77
2022/10/16 11:29:03;;;;;;;9.00;1.95;;;18.50;61.30;;;;;;5116608;27;20043;-78
2022/10/16 11:31:36;;;;;;;11.27;2.58;;;18.50;61.30;;;;;;5133515;27;20375;-77
2022/10/16 11:34:21;;;;;;;11.55;2.38;;;18.50;61.10;;;;;;5133247;27;20043;-77
2022/10/16 11:36:58;;;;;;;11.68;2.20;;;18.50;60.60;;;;;;5116024;27;20039;-76
2022/10/16 11:39:31;;;;;;;8.30;2.03;;;18.50;60.40;;;;;;5116035;27;20030;-77
2022/10/16 11:42:16;;;;;;;8.63;1.80;;;18.40;60.40;;;;;;5133446;27;20386;-77
2022/10/16 11:44:48;;;;;;;9.95;2.42;;;18.40;60.90;;;;;;5133051;27;20046;-77
2022/10/16 11:47:35;;;;;;;13.93;2.47;;;18.40;61.00;;;;;;5116013;27;20039;-76
2022/10/16 11:50:28;;;;;;;14.20;2.80;;;18.40;61.00;;;;;;5133056;28;20074;-76
2022/10/16 11:53:28;;;;;;;12.07;2.22;;;18.30;60.70;;;;;;5115896;28;20043;-76
2022/10/16 11:55:53;;;;;;;12.88;1.95;;;18.30;60.70;;;;;;5132775;28;20047;-76
2022/10/16 11:58:41;;;;;;;7.10;1.77;;;18.30;60.10;;;;;;5132590;27;20126;-77
2022/10/16 12:01:15;;;;;;;6.22;1.48;;;18.20;58.50;;;;;;5132781;27;20071;-77
2022/10/16 12:04:12;;;;;;;8.52;2.00;;;18.20;59.00;;;;;;5132682;28;20035;-77
2022/10/16 12:06:51;;;;;;;6.25;2.05;;;18.10;59.30;;;;;;5133101;27;20368;-77
2022/10/16 12:09:27;;;;;;;12.88;2.92;;;18.10;59.20;;;;;;5115709;28;20039;-77
2022/10/16 12:11:53;;;;;;;8.45;2.05;;;18.00;59.30;;;;;;5115744;28;20085;-77
2022/10/16 12:14:32;;;;;;;8.57;1.80;;;18.00;59.50;;;;;;5115977;28;20074;-77
2022/10/16 12:17:00;;;;;;;10.00;1.95;;;18.00;59.40;;;;;;5132699;28;20046;-77
2022/10/16 12:19:28;;;;;;;10.70;2.13;;;17.90;59.00;;;;;;5115485;28;20047;-77
2022/10/16 12:21:57;;;;;;;8.50;1.80;;;17.90;58.40;;;;;;5133045;27;20104;-77
2022/10/16 12:24:40;;;;;;;8.75;2.00;;;17.80;57.80;;;;;;5115547;28;20039;-77
2022/10/16 12:27:30;;;;;;;7.53;1.93;;;17.80;57.30;;;;;;5115757;28;20027;-78
2022/10/16 12:29:59;;;;;;;15.07;2.38;;;17.70;57.50;;;;;;5152062;27;20368;-78
2022/10/16 12:32:30;;;;;;;9.15;2.08;;;17.60;57.60;;;;;;5136613;27;20027;-77
2022/10/16 12:34:56;;;;;;;9.43;2.08;;;17.60;57.60;;;;;;5136463;27;20049;-77
2022/10/16 12:37:25;;;;;;;9.30;2.25;;;17.60;57.70;;;;;;5136474;27;20035;-77
2022/10/16 12:39:54;;;;;;;10.90;2.28;;;17.50;57.30;;;;;;5136563;27;20039;-78
2022/10/16 12:42:33;;;;;;;10.30;1.75;;;17.50;57.60;;;;;;5136257;27;20039;-75
2022/10/16 12:45:00;;;;;;;9.48;1.42;;;17.50;57.70;;;;;;5136248;27;20104;-77
2022/10/16 12:47:31;;;;;;;12.85;2.53;;;17.50;57.50;;;;;;5119601;27;20394;-76
2022/10/16 12:49:58;;;;;;;11.20;2.17;;;17.50;57.30;;;;;;5136281;27;20043;-82
2022/10/16 12:52:27;;;;;;;8.63;1.83;;;17.50;57.70;;;;;;5118752;27;20122;-76
2022/10/16 12:54:59;;;;;;;9.57;2.38;;;17.50;57.90;;;;;;5118515;27;20486;-78
2022/10/16 12:57:54;;;;;;;11.10;2.65;;;17.40;57.80;;;;;;5136235;27;20043;-78
2022/10/16 13:00:43;;;;;;;9.32;2.05;;;17.50;57.80;;;;;;5119032;27;20587;-77
2022/10/16 13:03:53;;;;;;;10.95;2.15;;;17.50;58.00;;;;;;5136102;27;20078;-77
2022/10/16 13:06:34;;;;;;;7.93;1.95;;;17.50;58.50;;;;;;5118856;27;20043;-77